Terminal Aerodrome Forecast
Issued by NWS

Home | Current Version | Previous Version | Text Only | Print | Product List | Glossary On
Versions: 1 2 3 4 5 6 7 8 9 10 11 12 13 14 15 16 17 18 19 20 21 22 23 24
888
FTAK31 PAFA 290534
TAFAGA
TAF
PAGA 290534Z 2906/3006 20005KT P6SM -SHRA SCT060 OVC080
     FM291200 21003KT 4SM -SHRA BR BKN025 OVC050
     FM292000 21007KT 3SM -RA BR SCT009 BKN015 OVC025=

USA.gov is the U.S. government's official web portal to all federal, state and local government web resources and services.